sensor_id;sensor_type;location;lat;lon;timestamp;temperature;humidity
25652;DHT22;13508;50.734;4.232;2022-09-12T00:01:48;16.80;99.90
25652;DHT22;13508;50.734;4.232;2022-09-12T00:04:51;16.60;99.90
25652;DHT22;13508;50.734;4.232;2022-09-12T00:07:54;16.40;99.90
25652;DHT22;13508;50.734;4.232;2022-09-12T00:10:58;16.20;99.90
25652;DHT22;13508;50.734;4.232;2022-09-12T00:14:14;16.20;99.90
25652;DHT22;13508;50.734;4.232;2022-09-12T00:17:18;16.10;99.90
25652;DHT22;13508;50.734;4.232;2022-09-12T00:20:21;16.00;99.90
25652;DHT22;13508;50.734;4.232;2022-09-12T00:23:24;15.90;99.90
25652;DHT22;13508;50.734;4.232;2022-09-12T00:26:28;16.10;99.90
25652;DHT22;13508;50.734;4.232;2022-09-12T00:29:31;16.30;99.90
25652;DHT22;13508;50.734;4.232;2022-09-12T00:32:34;16.30;99.90
25652;DHT22;13508;50.734;4.232;2022-09-12T00:35:43;16.10;99.90
25652;DHT22;13508;50.734;4.232;2022-09-12T00:38:47;16.30;99.90
25652;DHT22;13508;50.734;4.232;2022-09-12T00:41:51;16.50;99.90
25652;DHT22;13508;50.734;4.232;2022-09-12T00:44:55;16.60;99.90
25652;DHT22;13508;50.734;4.232;2022-09-12T00:48:01;16.60;99.90
25652;DHT22;13508;50.734;4.232;2022-09-12T00:51:06;16.40;99.90
25652;DHT22;13508;50.734;4.232;2022-09-12T00:54:11;16.20;99.90
25652;DHT22;13508;50.734;4.232;2022-09-12T00:57:20;16.40;99.90
25652;DHT22;13508;50.734;4.232;2022-09-12T01:00:26;16.40;99.90
25652;DHT22;13508;50.734;4.232;2022-09-12T01:03:29;16.30;99.90
25652;DHT22;13508;50.734;4.232;2022-09-12T01:06:36;16.10;99.90
25652;DHT22;13508;50.734;4.232;2022-09-12T01:09:43;15.90;99.90
25652;DHT22;13508;50.734;4.232;2022-09-12T01:12:47;15.60;99.90
25652;DHT22;13508;50.734;4.232;2022-09-12T01:15:50;15.30;99.90
25652;DHT22;13508;50.734;4.232;2022-09-12T01:22:30;14.90;99.90
25652;DHT22;13508;50.734;4.232;2022-09-12T01:26:08;15.20;99.90
25652;DHT22;13508;50.734;4.232;2022-09-12T01:32:42;15.10;99.90
25652;DHT22;13508;50.734;4.232;2022-09-12T01:36:03;15.10;99.90
25652;DHT22;13508;50.734;4.232;2022-09-12T01:43:23;15.40;99.90
25652;DHT22;13508;50.734;4.232;2022-09-12T01:50:27;15.40;99.90
25652;DHT22;13508;50.734;4.232;2022-09-12T01:53:40;15.50;99.90
25652;DHT22;13508;50.734;4.232;2022-09-12T01:56:48;15.50;99.90
25652;DHT22;13508;50.734;4.232;2022-09-12T01:59:58;15.40;99.90
25652;DHT22;13508;50.734;4.232;2022-09-12T02:03:14;15.50;99.90
25652;DHT22;13508;50.734;4.232;2022-09-12T02:06:26;15.70;99.90
25652;DHT22;13508;50.734;4.232;2022-09-12T02:09:38;15.80;99.90
25652;DHT22;13508;50.734;4.232;2022-09-12T02:13:09;15.60;99.90
25652;DHT22;13508;50.734;4.232;2022-09-12T02:16:15;15.50;99.90
25652;DHT22;13508;50.734;4.232;2022-09-12T02:19:23;15.50;99.90
25652;DHT22;13508;50.734;4.232;2022-09-12T02:22:28;15.50;99.90
25652;DHT22;13508;50.734;4.232;2022-09-12T02:25:32;15.40;99.90
25652;DHT22;13508;50.734;4.232;2022-09-12T02:28:41;15.30;99.90
25652;DHT22;13508;50.734;4.232;2022-09-12T02:32:27;15.60;99.90
25652;DHT22;13508;50.734;4.232;2022-09-12T02:35:34;15.70;99.90
25652;DHT22;13508;50.734;4.232;2022-09-12T02:38:45;15.70;99.90
25652;DHT22;13508;50.734;4.232;2022-09-12T02:41:50;15.40;99.90
25652;DHT22;13508;50.734;4.232;2022-09-12T02:44:55;15.10;99.90
25652;DHT22;13508;50.734;4.232;2022-09-12T02:48:29;14.90;99.90
25652;DHT22;13508;50.734;4.232;2022-09-12T02:51:33;15.00;99.90
25652;DHT22;13508;50.734;4.232;2022-09-12T02:54:36;14.80;99.90
25652;DHT22;13508;50.734;4.232;2022-09-12T02:57:40;14.70;99.90
25652;DHT22;13508;50.734;4.232;2022-09-12T03:21:16;15.10;99.90
25652;DHT22;13508;50.734;4.232;2022-09-12T03:24:35;14.80;99.90
25652;DHT22;13508;50.734;4.232;2022-09-12T03:27:49;14.70;99.90
25652;DHT22;13508;50.734;4.232;2022-09-12T03:30:55;14.90;99.90
25652;DHT22;13508;50.734;4.232;2022-09-12T03:33:59;15.00;99.90
25652;DHT22;13508;50.734;4.232;2022-09-12T03:37:03;14.90;99.90
25652;DHT22;13508;50.734;4.232;2022-09-12T03:40:08;15.00;99.90
25652;DHT22;13508;50.734;4.232;2022-09-12T03:43:12;14.90;99.90
25652;DHT22;13508;50.734;4.232;2022-09-12T03:46:15;14.80;99.90
25652;DHT22;13508;50.734;4.232;2022-09-12T03:49:18;14.70;99.90
25652;DHT22;13508;50.734;4.232;2022-09-12T03:52:22;14.70;99.90
25652;DHT22;13508;50.734;4.232;2022-09-12T03:55:26;14.60;99.90
25652;DHT22;13508;50.734;4.232;2022-09-12T03:58:29;14.60;99.90
25652;DHT22;13508;50.734;4.232;2022-09-12T04:01:33;14.80;99.90
25652;DHT22;13508;50.734;4.232;2022-09-12T04:04:37;15.10;99.90
25652;DHT22;13508;50.734;4.232;2022-09-12T04:07:42;14.80;99.90
25652;DHT22;13508;50.734;4.232;2022-09-12T04:10:45;14.80;99.90
25652;DHT22;13508;50.734;4.232;2022-09-12T04:13:49;14.70;99.90
25652;DHT22;13508;50.734;4.232;2022-09-12T04:16:53;14.80;99.90
25652;DHT22;13508;50.734;4.232;2022-09-12T04:19:56;14.80;99.90
25652;DHT22;13508;50.734;4.232;2022-09-12T04:22:59;14.80;99.90
25652;DHT22;13508;50.734;4.232;2022-09-12T04:26:03;14.70;99.90
25652;DHT22;13508;50.734;4.232;2022-09-12T04:29:10;14.70;99.90
25652;DHT22;13508;50.734;4.232;2022-09-12T04:32:14;14.50;99.90
25652;DHT22;13508;50.734;4.232;2022-09-12T04:35:17;14.50;99.90
25652;DHT22;13508;50.734;4.232;2022-09-12T04:38:20;14.40;99.90
25652;DHT22;13508;50.734;4.232;2022-09-12T04:41:25;14.60;99.90
25652;DHT22;13508;50.734;4.232;2022-09-12T04:44:29;15.00;99.90
25652;DHT22;13508;50.734;4.232;2022-09-12T04:47:33;15.30;99.90
25652;DHT22;13508;50.734;4.232;2022-09-12T04:50:36;15.10;99.90
25652;DHT22;13508;50.734;4.232;2022-09-12T04:53:40;14.80;99.90
25652;DHT22;13508;50.734;4.232;2022-09-12T04:56:46;14.70;99.90
25652;DHT22;13508;50.734;4.232;2022-09-12T04:59:50;14.80;99.90
25652;DHT22;13508;50.734;4.232;2022-09-12T05:02:54;14.80;99.90
25652;DHT22;13508;50.734;4.232;2022-09-12T05:05:58;14.80;99.90
25652;DHT22;13508;50.734;4.232;2022-09-12T05:09:04;14.80;99.90
25652;DHT22;13508;50.734;4.232;2022-09-12T05:12:07;14.70;99.90
25652;DHT22;13508;50.734;4.232;2022-09-12T05:15:11;14.50;99.90
25652;DHT22;13508;50.734;4.232;2022-09-12T05:18:14;14.30;99.90
25652;DHT22;13508;50.734;4.232;2022-09-12T05:21:20;14.20;99.90
25652;DHT22;13508;50.734;4.232;2022-09-12T05:24:24;14.00;99.90
25652;DHT22;13508;50.734;4.232;2022-09-12T05:27:28;13.90;99.90
25652;DHT22;13508;50.734;4.232;2022-09-12T05:30:31;13.90;99.90
25652;DHT22;13508;50.734;4.232;2022-09-12T05:33:36;13.90;99.90
25652;DHT22;13508;50.734;4.232;2022-09-12T05:36:39;14.00;99.90
25652;DHT22;13508;50.734;4.232;2022-09-12T05:39:42;14.00;99.90
25652;DHT22;13508;50.734;4.232;2022-09-12T05:42:45;13.90;99.90
25652;DHT22;13508;50.734;4.232;2022-09-12T05:45:48;13.90;99.90
25652;DHT22;13508;50.734;4.232;2022-09-12T05:48:52;13.90;99.90
25652;DHT22;13508;50.734;4.232;2022-09-12T05:51:57;14.00;99.90
25652;DHT22;13508;50.734;4.232;2022-09-12T05:55:00;14.20;99.90
25652;DHT22;13508;50.734;4.232;2022-09-12T05:58:03;14.10;99.90
25652;DHT22;13508;50.734;4.232;2022-09-12T06:01:09;14.20;99.90
25652;DHT22;13508;50.734;4.232;2022-09-12T06:04:13;14.70;99.90
25652;DHT22;13508;50.734;4.232;2022-09-12T06:07:16;14.90;99.90
25652;DHT22;13508;50.734;4.232;2022-09-12T06:10:19;14.80;99.90
25652;DHT22;13508;50.734;4.232;2022-09-12T06:13:24;14.80;99.90
25652;DHT22;13508;50.734;4.232;2022-09-12T06:16:31;14.80;99.90
25652;DHT22;13508;50.734;4.232;2022-09-12T06:19:35;14.70;99.90
25652;DHT22;13508;50.734;4.232;2022-09-12T06:22:38;14.80;99.90
25652;DHT22;13508;50.734;4.232;2022-09-12T06:25:46;14.90;99.90
25652;DHT22;13508;50.734;4.232;2022-09-12T06:28:51;15.10;99.90
25652;DHT22;13508;50.734;4.232;2022-09-12T06:31:55;15.20;99.90
25652;DHT22;13508;50.734;4.232;2022-09-12T06:34:58;15.30;99.90
25652;DHT22;13508;50.734;4.232;2022-09-12T06:38:01;15.40;99.90
25652;DHT22;13508;50.734;4.232;2022-09-12T06:41:06;15.50;99.90
25652;DHT22;13508;50.734;4.232;2022-09-12T06:44:13;15.50;99.90
25652;DHT22;13508;50.734;4.232;2022-09-12T06:47:17;15.70;99.90
25652;DHT22;13508;50.734;4.232;2022-09-12T06:50:24;15.80;99.90
25652;DHT22;13508;50.734;4.232;2022-09-12T06:53:29;15.90;99.90
25652;DHT22;13508;50.734;4.232;2022-09-12T06:56:32;16.00;99.90
25652;DHT22;13508;50.734;4.232;2022-09-12T06:59:36;16.10;99.90
25652;DHT22;13508;50.734;4.232;2022-09-12T07:02:39;16.10;99.90
25652;DHT22;13508;50.734;4.232;2022-09-12T07:05:44;16.10;99.90
25652;DHT22;13508;50.734;4.232;2022-09-12T07:08:48;16.30;99.90
25652;DHT22;13508;50.734;4.232;2022-09-12T07:11:52;16.20;99.90
25652;DHT22;13508;50.734;4.232;2022-09-12T07:14:55;16.20;99.90
25652;DHT22;13508;50.734;4.232;2022-09-12T07:17:59;16.30;99.90
25652;DHT22;13508;50.734;4.232;2022-09-12T07:21:05;16.50;99.90
25652;DHT22;13508;50.734;4.232;2022-09-12T07:24:09;16.80;99.90
25652;DHT22;13508;50.734;4.232;2022-09-12T07:27:13;17.10;99.90
25652;DHT22;13508;50.734;4.232;2022-09-12T07:30:16;17.10;99.90
25652;DHT22;13508;50.734;4.232;2022-09-12T07:33:25;17.30;99.90
25652;DHT22;13508;50.734;4.232;2022-09-12T07:36:29;17.60;99.90
25652;DHT22;13508;50.734;4.232;2022-09-12T07:39:33;18.00;99.90
25652;DHT22;13508;50.734;4.232;2022-09-12T07:42:36;18.30;99.90
25652;DHT22;13508;50.734;4.232;2022-09-12T07:45:40;18.40;99.90
25652;DHT22;13508;50.734;4.232;2022-09-12T07:48:48;18.70;99.90
25652;DHT22;13508;50.734;4.232;2022-09-12T07:51:53;18.90;99.90
25652;DHT22;13508;50.734;4.232;2022-09-12T07:54:56;19.20;99.90
25652;DHT22;13508;50.734;4.232;2022-09-12T07:58:00;19.60;99.90
25652;DHT22;13508;50.734;4.232;2022-09-12T08:01:08;19.80;99.90
25652;DHT22;13508;50.734;4.232;2022-09-12T08:04:12;19.60;99.90
25652;DHT22;13508;50.734;4.232;2022-09-12T08:07:15;19.30;99.90
25652;DHT22;13508;50.734;4.232;2022-09-12T08:10:21;19.20;99.90
25652;DHT22;13508;50.734;4.232;2022-09-12T08:13:25;19.20;99.90
25652;DHT22;13508;50.734;4.232;2022-09-12T08:16:30;19.40;99.90
25652;DHT22;13508;50.734;4.232;2022-09-12T08:19:33;20.10;99.90
25652;DHT22;13508;50.734;4.232;2022-09-12T08:22:37;21.70;99.90
25652;DHT22;13508;50.734;4.232;2022-09-12T08:25:42;24.90;99.90
25652;DHT22;13508;50.734;4.232;2022-09-12T08:28:46;26.10;99.90
25652;DHT22;13508;50.734;4.232;2022-09-12T08:31:49;27.30;98.00
25652;DHT22;13508;50.734;4.232;2022-09-12T08:34:52;27.30;97.10
25652;DHT22;13508;50.734;4.232;2022-09-12T08:37:56;28.20;95.30
25652;DHT22;13508;50.734;4.232;2022-09-12T08:41:20;28.30;94.40
25652;DHT22;13508;50.734;4.232;2022-09-12T08:47:44;29.00;92.00
25652;DHT22;13508;50.734;4.232;2022-09-12T08:50:49;29.70;88.00
25652;DHT22;13508;50.734;4.232;2022-09-12T08:53:53;29.80;87.40
25652;DHT22;13508;50.734;4.232;2022-09-12T08:57:02;30.90;84.80
25652;DHT22;13508;50.734;4.232;2022-09-12T09:00:12;29.80;84.00
25652;DHT22;13508;50.734;4.232;2022-09-12T09:16:40;33.50;67.40
25652;DHT22;13508;50.734;4.232;2022-09-12T09:20:30;33.60;64.90
25652;DHT22;13508;50.734;4.232;2022-09-12T09:23:33;34.00;64.00
25652;DHT22;13508;50.734;4.232;2022-09-12T09:27:00;35.50;60.70
25652;DHT22;13508;50.734;4.232;2022-09-12T09:30:12;33.30;62.20
25652;DHT22;13508;50.734;4.232;2022-09-12T09:33:27;31.90;68.50
25652;DHT22;13508;50.734;4.232;2022-09-12T09:36:43;33.30;63.70
25652;DHT22;13508;50.734;4.232;2022-09-12T09:43:23;35.30;57.40
25652;DHT22;13508;50.734;4.232;2022-09-12T09:46:29;35.50;56.50
25652;DHT22;13508;50.734;4.232;2022-09-12T09:49:33;36.00;55.90
25652;DHT22;13508;50.734;4.232;2022-09-12T09:52:37;33.70;57.80
25652;DHT22;13508;50.734;4.232;2022-09-12T09:55:42;33.90;58.70
25652;DHT22;13508;50.734;4.232;2022-09-12T09:58:49;33.60;58.90
25652;DHT22;13508;50.734;4.232;2022-09-12T10:02:02;34.50;58.40
25652;DHT22;13508;50.734;4.232;2022-09-12T10:05:06;35.20;56.80
25652;DHT22;13508;50.734;4.232;2022-09-12T10:08:09;35.50;55.70
25652;DHT22;13508;50.734;4.232;2022-09-12T10:11:21;35.70;54.90
25652;DHT22;13508;50.734;4.232;2022-09-12T10:14:37;36.60;53.70
25652;DHT22;13508;50.734;4.232;2022-09-12T10:17:41;35.30;56.30
25652;DHT22;13508;50.734;4.232;2022-09-12T10:20:45;36.60;52.60
25652;DHT22;13508;50.734;4.232;2022-09-12T10:23:59;34.90;54.70
25652;DHT22;13508;50.734;4.232;2022-09-12T10:30:19;32.10;60.10
25652;DHT22;13508;50.734;4.232;2022-09-12T10:33:25;32.40;60.30
25652;DHT22;13508;50.734;4.232;2022-09-12T10:36:36;34.30;56.30
25652;DHT22;13508;50.734;4.232;2022-09-12T10:39:40;35.20;54.50
25652;DHT22;13508;50.734;4.232;2022-09-12T10:42:53;35.00;54.10
25652;DHT22;13508;50.734;4.232;2022-09-12T10:46:43;34.50;55.10
25652;DHT22;13508;50.734;4.232;2022-09-12T10:49:22;35.90;52.30
25652;DHT22;13508;50.734;4.232;2022-09-12T10:52:26;35.60;52.60
25652;DHT22;13508;50.734;4.232;2022-09-12T10:55:33;34.80;52.50
25652;DHT22;13508;50.734;4.232;2022-09-12T11:01:59;32.70;56.50
25652;DHT22;13508;50.734;4.232;2022-09-12T11:08:36;30.70;61.20
25652;DHT22;13508;50.734;4.232;2022-09-12T11:15:32;30.10;65.40
25652;DHT22;13508;50.734;4.232;2022-09-12T11:22:44;32.20;60.00
25652;DHT22;13508;50.734;4.232;2022-09-12T11:25:59;32.20;59.30
25652;DHT22;13508;50.734;4.232;2022-09-12T11:29:51;33.30;56.40
25652;DHT22;13508;50.734;4.232;2022-09-12T11:36:06;32.90;57.00
25652;DHT22;13508;50.734;4.232;2022-09-12T11:39:19;32.90;57.10
25652;DHT22;13508;50.734;4.232;2022-09-12T11:42:35;34.30;54.60
25652;DHT22;13508;50.734;4.232;2022-09-12T11:45:43;35.60;51.80
25652;DHT22;13508;50.734;4.232;2022-09-12T11:48:50;36.10;51.00
25652;DHT22;13508;50.734;4.232;2022-09-12T11:52:41;34.60;53.00
25652;DHT22;13508;50.734;4.232;2022-09-12T11:55:28;34.60;53.60
25652;DHT22;13508;50.734;4.232;2022-09-12T11:58:35;33.90;53.90
25652;DHT22;13508;50.734;4.232;2022-09-12T12:01:42;33.50;54.90
25652;DHT22;13508;50.734;4.232;2022-09-12T12:05:13;33.90;54.50
25652;DHT22;13508;50.734;4.232;2022-09-12T12:08:18;32.40;55.90
25652;DHT22;13508;50.734;4.232;2022-09-12T12:11:35;32.90;56.30
25652;DHT22;13508;50.734;4.232;2022-09-12T12:14:45;33.80;55.10
25652;DHT22;13508;50.734;4.232;2022-09-12T12:21:41;34.30;52.50
25652;DHT22;13508;50.734;4.232;2022-09-12T12:25:00;35.00;52.50
25652;DHT22;13508;50.734;4.232;2022-09-12T12:28:04;32.60;53.20
25652;DHT22;13508;50.734;4.232;2022-09-12T12:31:09;31.90;56.30
25652;DHT22;13508;50.734;4.232;2022-09-12T12:34:26;31.20;58.40
25652;DHT22;13508;50.734;4.232;2022-09-12T12:40:32;32.40;56.80
25652;DHT22;13508;50.734;4.232;2022-09-12T12:43:36;32.40;56.00
25652;DHT22;13508;50.734;4.232;2022-09-12T12:46:40;32.90;55.40
25652;DHT22;13508;50.734;4.232;2022-09-12T12:49:50;33.30;55.70
25652;DHT22;13508;50.734;4.232;2022-09-12T12:53:17;32.80;55.70
25652;DHT22;13508;50.734;4.232;2022-09-12T12:56:33;32.30;57.10
25652;DHT22;13508;50.734;4.232;2022-09-12T12:59:55;32.70;56.80
25652;DHT22;13508;50.734;4.232;2022-09-12T13:06:18;31.90;57.10
25652;DHT22;13508;50.734;4.232;2022-09-12T13:09:42;32.50;56.60
25652;DHT22;13508;50.734;4.232;2022-09-12T13:12:47;33.20;55.20
25652;DHT22;13508;50.734;4.232;2022-09-12T13:15:52;33.60;53.40
25652;DHT22;13508;50.734;4.232;2022-09-12T13:18:56;33.50;54.10
25652;DHT22;13508;50.734;4.232;2022-09-12T13:22:06;33.80;53.20
25652;DHT22;13508;50.734;4.232;2022-09-12T13:25:21;33.40;53.60
25652;DHT22;13508;50.734;4.232;2022-09-12T13:28:27;32.30;55.60
25652;DHT22;13508;50.734;4.232;2022-09-12T13:31:30;30.10;60.00
25652;DHT22;13508;50.734;4.232;2022-09-12T13:34:58;29.80;61.10
25652;DHT22;13508;50.734;4.232;2022-09-12T13:38:19;30.50;59.00
25652;DHT22;13508;50.734;4.232;2022-09-12T13:44:44;30.50;58.40
25652;DHT22;13508;50.734;4.232;2022-09-12T13:47:52;30.60;57.90
25652;DHT22;13508;50.734;4.232;2022-09-12T13:51:04;30.10;59.10
25652;DHT22;13508;50.734;4.232;2022-09-12T13:54:16;29.70;59.20
25652;DHT22;13508;50.734;4.232;2022-09-12T14:00:32;29.20;62.90
25652;DHT22;13508;50.734;4.232;2022-09-12T14:03:51;29.30;61.60
25652;DHT22;13508;50.734;4.232;2022-09-12T14:07:14;29.50;60.90
25652;DHT22;13508;50.734;4.232;2022-09-12T14:10:37;29.10;60.70
25652;DHT22;13508;50.734;4.232;2022-09-12T14:13:41;29.10;61.00
25652;DHT22;13508;50.734;4.232;2022-09-12T14:16:45;28.90;62.80
25652;DHT22;13508;50.734;4.232;2022-09-12T14:19:49;28.50;64.60
25652;DHT22;13508;50.734;4.232;2022-09-12T14:22:53;28.50;63.90
25652;DHT22;13508;50.734;4.232;2022-09-12T14:25:59;29.00;62.70
25652;DHT22;13508;50.734;4.232;2022-09-12T14:29:07;28.60;65.30
25652;DHT22;13508;50.734;4.232;2022-09-12T14:32:29;28.90;64.10
25652;DHT22;13508;50.734;4.232;2022-09-12T14:35:32;28.80;62.90
25652;DHT22;13508;50.734;4.232;2022-09-12T14:38:41;29.20;62.90
25652;DHT22;13508;50.734;4.232;2022-09-12T14:41:45;29.20;63.70
25652;DHT22;13508;50.734;4.232;2022-09-12T14:45:00;28.70;64.30
25652;DHT22;13508;50.734;4.232;2022-09-12T14:48:04;28.10;66.30
25652;DHT22;13508;50.734;4.232;2022-09-12T14:51:27;27.80;67.70
25652;DHT22;13508;50.734;4.232;2022-09-12T14:54:33;28.10;66.20
25652;DHT22;13508;50.734;4.232;2022-09-12T14:57:39;27.90;67.40
25652;DHT22;13508;50.734;4.232;2022-09-12T15:04:07;28.80;64.30
25652;DHT22;13508;50.734;4.232;2022-09-12T15:07:31;28.60;65.30
25652;DHT22;13508;50.734;4.232;2022-09-12T15:10:36;28.00;65.40
25652;DHT22;13508;50.734;4.232;2022-09-12T15:13:41;28.10;66.60
25652;DHT22;13508;50.734;4.232;2022-09-12T15:16:44;28.40;64.70
25652;DHT22;13508;50.734;4.232;2022-09-12T15:19:48;28.40;64.20
25652;DHT22;13508;50.734;4.232;2022-09-12T15:22:52;28.30;64.90
25652;DHT22;13508;50.734;4.232;2022-09-12T15:25:55;28.30;64.50
25652;DHT22;13508;50.734;4.232;2022-09-12T15:28:58;27.90;66.20
25652;DHT22;13508;50.734;4.232;2022-09-12T15:32:02;27.90;65.80
25652;DHT22;13508;50.734;4.232;2022-09-12T15:35:17;28.10;65.20
25652;DHT22;13508;50.734;4.232;2022-09-12T15:38:28;28.40;65.50
25652;DHT22;13508;50.734;4.232;2022-09-12T15:41:42;28.60;64.80
25652;DHT22;13508;50.734;4.232;2022-09-12T15:44:46;28.50;64.90
25652;DHT22;13508;50.734;4.232;2022-09-12T15:47:49;28.50;63.70
25652;DHT22;13508;50.734;4.232;2022-09-12T15:50:52;28.70;63.50
25652;DHT22;13508;50.734;4.232;2022-09-12T15:53:56;28.60;62.60
25652;DHT22;13508;50.734;4.232;2022-09-12T15:56:59;28.40;63.70
25652;DHT22;13508;50.734;4.232;2022-09-12T16:00:03;28.30;64.20
25652;DHT22;13508;50.734;4.232;2022-09-12T16:03:22;28.40;63.40
25652;DHT22;13508;50.734;4.232;2022-09-12T16:06:26;28.30;64.80
25652;DHT22;13508;50.734;4.232;2022-09-12T16:09:31;28.20;63.70
25652;DHT22;13508;50.734;4.232;2022-09-12T16:12:34;28.00;64.30
25652;DHT22;13508;50.734;4.232;2022-09-12T16:15:38;28.00;64.10
25652;DHT22;13508;50.734;4.232;2022-09-12T16:18:41;27.90;64.50
25652;DHT22;13508;50.734;4.232;2022-09-12T16:21:45;28.00;64.90
25652;DHT22;13508;50.734;4.232;2022-09-12T16:24:48;27.90;64.20
25652;DHT22;13508;50.734;4.232;2022-09-12T16:27:52;27.90;64.00
25652;DHT22;13508;50.734;4.232;2022-09-12T16:31:00;28.10;63.50
25652;DHT22;13508;50.734;4.232;2022-09-12T16:34:04;28.20;65.00
25652;DHT22;13508;50.734;4.232;2022-09-12T16:37:07;28.20;63.00
25652;DHT22;13508;50.734;4.232;2022-09-12T16:40:10;28.30;63.20
25652;DHT22;13508;50.734;4.232;2022-09-12T16:43:14;28.00;64.50
25652;DHT22;13508;50.734;4.232;2022-09-12T16:46:21;27.80;64.80
25652;DHT22;13508;50.734;4.232;2022-09-12T16:49:25;27.80;64.50
25652;DHT22;13508;50.734;4.232;2022-09-12T16:52:29;27.80;62.50
25652;DHT22;13508;50.734;4.232;2022-09-12T16:55:32;27.80;62.30
25652;DHT22;13508;50.734;4.232;2022-09-12T16:58:38;27.80;62.40
25652;DHT22;13508;50.734;4.232;2022-09-12T17:01:42;27.70;61.80
25652;DHT22;13508;50.734;4.232;2022-09-12T17:04:46;27.70;62.50
25652;DHT22;13508;50.734;4.232;2022-09-12T17:07:51;27.70;62.00
25652;DHT22;13508;50.734;4.232;2022-09-12T17:11:01;27.40;61.90
25652;DHT22;13508;50.734;4.232;2022-09-12T17:14:06;27.20;63.20
25652;DHT22;13508;50.734;4.232;2022-09-12T17:17:10;27.10;63.40
25652;DHT22;13508;50.734;4.232;2022-09-12T17:20:13;27.20;63.50
25652;DHT22;13508;50.734;4.232;2022-09-12T17:23:17;27.10;63.80
25652;DHT22;13508;50.734;4.232;2022-09-12T17:26:20;27.00;63.80
25652;DHT22;13508;50.734;4.232;2022-09-12T17:29:24;26.90;65.40
25652;DHT22;13508;50.734;4.232;2022-09-12T17:32:27;26.70;66.60
25652;DHT22;13508;50.734;4.232;2022-09-12T17:35:33;26.60;66.60
25652;DHT22;13508;50.734;4.232;2022-09-12T17:38:38;26.60;67.40
25652;DHT22;13508;50.734;4.232;2022-09-12T17:41:42;26.50;67.80
25652;DHT22;13508;50.734;4.232;2022-09-12T17:44:46;26.40;68.60
25652;DHT22;13508;50.734;4.232;2022-09-12T17:47:49;26.40;69.20
25652;DHT22;13508;50.734;4.232;2022-09-12T17:50:52;26.30;69.70
25652;DHT22;13508;50.734;4.232;2022-09-12T17:54:01;26.20;70.20
25652;DHT22;13508;50.734;4.232;2022-09-12T17:57:04;26.10;71.10
25652;DHT22;13508;50.734;4.232;2022-09-12T18:00:08;26.00;72.80
25652;DHT22;13508;50.734;4.232;2022-09-12T18:03:12;25.90;73.50
25652;DHT22;13508;50.734;4.232;2022-09-12T18:06:15;25.80;74.50
25652;DHT22;13508;50.734;4.232;2022-09-12T18:09:21;25.80;75.80
25652;DHT22;13508;50.734;4.232;2022-09-12T18:12:27;25.60;77.20
25652;DHT22;13508;50.734;4.232;2022-09-12T18:15:32;25.50;78.00
25652;DHT22;13508;50.734;4.232;2022-09-12T18:18:36;25.50;77.60
25652;DHT22;13508;50.734;4.232;2022-09-12T18:21:40;25.40;78.80
25652;DHT22;13508;50.734;4.232;2022-09-12T18:24:43;25.20;81.60
25652;DHT22;13508;50.734;4.232;2022-09-12T18:27:47;24.90;83.80
25652;DHT22;13508;50.734;4.232;2022-09-12T18:30:51;24.80;85.50
25652;DHT22;13508;50.734;4.232;2022-09-12T18:33:55;24.50;88.30
25652;DHT22;13508;50.734;4.232;2022-09-12T18:36:59;24.40;90.40
25652;DHT22;13508;50.734;4.232;2022-09-12T18:40:04;24.30;91.40
25652;DHT22;13508;50.734;4.232;2022-09-12T18:43:07;24.20;92.70
25652;DHT22;13508;50.734;4.232;2022-09-12T18:46:13;23.90;94.80
25652;DHT22;13508;50.734;4.232;2022-09-12T18:49:16;23.40;97.80
25652;DHT22;13508;50.734;4.232;2022-09-12T18:52:20;22.90;99.90
25652;DHT22;13508;50.734;4.232;2022-09-12T18:55:24;22.80;99.90
25652;DHT22;13508;50.734;4.232;2022-09-12T18:58:27;23.00;99.90
25652;DHT22;13508;50.734;4.232;2022-09-12T19:01:36;23.00;99.90
25652;DHT22;13508;50.734;4.232;2022-09-12T19:04:39;22.70;99.90
25652;DHT22;13508;50.734;4.232;2022-09-12T19:07:42;22.40;99.90
25652;DHT22;13508;50.734;4.232;2022-09-12T19:10:53;22.30;99.90
25652;DHT22;13508;50.734;4.232;2022-09-12T19:13:57;22.30;99.90
25652;DHT22;13508;50.734;4.232;2022-09-12T19:17:01;22.40;99.90
25652;DHT22;13508;50.734;4.232;2022-09-12T19:20:04;22.40;99.90
25652;DHT22;13508;50.734;4.232;2022-09-12T19:23:07;21.90;99.90
25652;DHT22;13508;50.734;4.232;2022-09-12T19:26:13;21.60;99.90
25652;DHT22;13508;50.734;4.232;2022-09-12T19:29:17;21.50;99.90
25652;DHT22;13508;50.734;4.232;2022-09-12T19:32:20;21.80;99.90
25652;DHT22;13508;50.734;4.232;2022-09-12T19:35:23;22.20;99.90
25652;DHT22;13508;50.734;4.232;2022-09-12T19:38:27;22.10;99.90
25652;DHT22;13508;50.734;4.232;2022-09-12T19:41:31;22.00;99.90
25652;DHT22;13508;50.734;4.232;2022-09-12T19:44:35;22.20;99.90
25652;DHT22;13508;50.734;4.232;2022-09-12T19:47:38;22.40;99.90
25652;DHT22;13508;50.734;4.232;2022-09-12T19:50:42;22.60;99.90
25652;DHT22;13508;50.734;4.232;2022-09-12T19:53:46;22.50;99.90
25652;DHT22;13508;50.734;4.232;2022-09-12T19:56:51;22.20;99.90
25652;DHT22;13508;50.734;4.232;2022-09-12T19:59:54;22.10;99.90
25652;DHT22;13508;50.734;4.232;2022-09-12T20:02:57;22.00;99.90
25652;DHT22;13508;50.734;4.232;2022-09-12T20:06:04;22.10;99.90
25652;DHT22;13508;50.734;4.232;2022-09-12T20:09:08;22.20;99.90
25652;DHT22;13508;50.734;4.232;2022-09-12T20:12:12;21.80;99.90
25652;DHT22;13508;50.734;4.232;2022-09-12T20:15:16;21.10;99.90
25652;DHT22;13508;50.734;4.232;2022-09-12T20:18:19;21.00;99.90
25652;DHT22;13508;50.734;4.232;2022-09-12T20:21:25;21.10;99.90
25652;DHT22;13508;50.734;4.232;2022-09-12T20:24:32;21.40;99.90
25652;DHT22;13508;50.734;4.232;2022-09-12T20:27:36;21.30;99.90
25652;DHT22;13508;50.734;4.232;2022-09-12T20:30:39;21.10;99.90
25652;DHT22;13508;50.734;4.232;2022-09-12T20:33:43;21.00;99.90
25652;DHT22;13508;50.734;4.232;2022-09-12T20:36:46;21.00;99.90
25652;DHT22;13508;50.734;4.232;2022-09-12T20:39:50;21.10;99.90
25652;DHT22;13508;50.734;4.232;2022-09-12T20:42:53;21.10;99.90
25652;DHT22;13508;50.734;4.232;2022-09-12T20:45:56;21.30;99.90
25652;DHT22;13508;50.734;4.232;2022-09-12T20:49:00;21.30;99.90
25652;DHT22;13508;50.734;4.232;2022-09-12T20:52:03;21.20;99.90
25652;DHT22;13508;50.734;4.232;2022-09-12T20:55:07;21.00;99.90
25652;DHT22;13508;50.734;4.232;2022-09-12T20:58:11;20.90;99.90
25652;DHT22;13508;50.734;4.232;2022-09-12T21:01:14;21.00;99.90
25652;DHT22;13508;50.734;4.232;2022-09-12T21:04:18;20.90;99.90
25652;DHT22;13508;50.734;4.232;2022-09-12T21:07:21;20.60;99.90
25652;DHT22;13508;50.734;4.232;2022-09-12T21:10:25;20.10;99.90
25652;DHT22;13508;50.734;4.232;2022-09-12T21:13:29;19.50;99.90
25652;DHT22;13508;50.734;4.232;2022-09-12T21:16:32;19.20;99.90